Time;durP1;ratioP1;P1;durP2;ratioP2;P2;SDS_P1;SDS_P2;PMS_P1;PMS_P2;Temp;Humidity;BMP_temperature;BMP_pressure;BME280_temperature;BME280_humidity;BME280_pressure;Samples;Min_cycle;Max_cycle;Signal;HPM_P1;HPM_P2
2020/12/28 00:00:22;;;;;;;2.85;0.90;;;8.50;99.90;;;;;;5069913;28;20202;-83
2020/12/28 00:02:49;;;;;;;2.05;0.65;;;8.30;99.90;;;;;;5082969;28;20218;-83
2020/12/28 00:05:16;;;;;;;3.45;0.90;;;8.50;99.90;;;;;;5076644;28;20199;-83
2020/12/28 00:07:43;;;;;;;2.30;0.80;;;8.50;99.90;;;;;;5074842;28;20214;-82
2020/12/28 00:10:14;;;;;;;2.33;0.60;;;8.30;99.90;;;;;;5081064;28;20199;-83
2020/12/28 00:12:50;;;;;;;2.35;0.80;;;8.20;99.90;;;;;;5082474;28;20203;-82
2020/12/28 00:15:18;;;;;;;2.30;0.60;;;8.40;99.90;;;;;;5084083;28;20197;-82
2020/12/28 00:17:46;;;;;;;2.28;0.70;;;8.50;99.90;;;;;;5085119;28;20202;-82
2020/12/28 00:20:13;;;;;;;2.47;0.80;;;8.40;99.90;;;;;;5081691;28;20298;-82
2020/12/28 00:22:40;;;;;;;2.30;0.70;;;8.50;99.90;;;;;;5064269;28;20206;-82
2020/12/28 00:25:08;;;;;;;2.35;0.80;;;8.30;99.90;;;;;;5062037;28;20302;-81
2020/12/28 00:27:34;;;;;;;2.45;0.70;;;8.10;99.90;;;;;;5064300;28;20205;-83
2020/12/28 00:30:01;;;;;;;2.40;0.70;;;7.90;99.90;;;;;;5059936;28;20202;-82
2020/12/28 00:32:28;;;;;;;2.50;0.80;;;8.20;99.90;;;;;;5059020;28;20217;-83
2020/12/28 00:34:55;;;;;;;2.50;0.90;;;8.00;99.90;;;;;;5076048;28;20249;-83
2020/12/28 00:37:21;;;;;;;2.70;0.90;;;7.70;99.90;;;;;;5078925;28;20264;-83
2020/12/28 00:39:48;;;;;;;2.53;0.68;;;7.90;99.90;;;;;;5063757;28;20203;-84
2020/12/28 00:42:15;;;;;;;4.38;1.00;;;7.70;99.90;;;;;;5065413;28;20236;-84
2020/12/28 00:44:42;;;;;;;2.50;0.80;;;7.70;99.90;;;;;;5074805;28;20235;-84
2020/12/28 00:47:09;;;;;;;2.97;1.10;;;7.80;99.90;;;;;;5065858;28;20364;-84
2020/12/28 00:49:36;;;;;;;2.67;0.90;;;7.80;99.90;;;;;;5070727;28;20202;-84
2020/12/28 00:52:03;;;;;;;4.05;1.15;;;7.50;99.90;;;;;;5077325;28;20201;-84
2020/12/28 00:54:30;;;;;;;3.83;0.82;;;7.80;99.90;;;;;;5081716;28;20611;-83
2020/12/28 00:56:56;;;;;;;2.10;0.70;;;7.60;99.90;;;;;;5082456;28;20221;-84
2020/12/28 00:59:24;;;;;;;2.55;0.70;;;7.70;99.90;;;;;;5063715;28;20289;-84
2020/12/28 01:01:54;;;;;;;2.50;0.73;;;7.70;99.90;;;;;;5071068;28;20202;-83
2020/12/28 01:04:21;;;;;;;2.30;0.70;;;7.70;99.90;;;;;;5082110;28;20324;-83
2020/12/28 01:06:47;;;;;;;2.38;0.73;;;7.70;99.90;;;;;;5082499;28;20226;-84
2020/12/28 01:09:14;;;;;;;2.13;0.70;;;7.80;99.90;;;;;;5085948;28;20217;-83
2020/12/28 01:11:41;;;;;;;2.20;0.80;;;7.80;99.90;;;;;;5078050;28;20214;-83
2020/12/28 01:14:08;;;;;;;2.45;0.95;;;7.90;99.90;;;;;;5080029;28;20684;-83
2020/12/28 01:16:36;;;;;;;2.40;0.77;;;8.00;99.90;;;;;;5077292;28;20202;-84
2020/12/28 01:19:03;;;;;;;2.95;0.98;;;7.80;99.90;;;;;;5076133;28;20206;-84
2020/12/28 01:21:30;;;;;;;2.08;0.68;;;7.80;99.90;;;;;;5074884;28;20224;-83
2020/12/28 01:23:57;;;;;;;2.95;0.90;;;8.10;99.90;;;;;;5076930;28;20287;-84
2020/12/28 01:26:23;;;;;;;3.30;0.70;;;7.90;99.90;;;;;;5063140;28;20218;-84
2020/12/28 01:28:50;;;;;;;2.45;0.90;;;7.80;99.90;;;;;;5059958;28;20207;-84
2020/12/28 01:31:17;;;;;;;2.28;0.80;;;7.90;99.90;;;;;;5057380;28;20266;-85
2020/12/28 01:33:45;;;;;;;2.40;0.80;;;7.80;99.90;;;;;;5056731;28;20223;-85
2020/12/28 01:36:11;;;;;;;2.78;1.05;;;7.70;99.90;;;;;;5068548;28;20327;-85
2020/12/28 01:38:38;;;;;;;2.33;0.75;;;7.70;99.90;;;;;;5077128;28;20214;-85
2020/12/28 01:41:05;;;;;;;2.67;0.80;;;7.60;99.90;;;;;;5076135;28;20561;-85
2020/12/28 01:46:03;;;;;;;2.50;0.70;;;7.80;99.90;;;;;;5045161;28;20677;-81
2020/12/28 01:48:31;;;;;;;2.75;1.10;;;7.70;99.90;;;;;;5042601;28;20294;-79
2020/12/28 01:50:58;;;;;;;3.00;1.02;;;7.60;99.90;;;;;;5051439;28;20203;-82
2020/12/28 01:53:26;;;;;;;2.75;0.93;;;7.70;99.90;;;;;;5042596;28;20211;-82
2020/12/28 01:55:56;;;;;;;2.42;0.90;;;7.60;99.90;;;;;;5035526;28;20745;-81
2020/12/28 01:58:23;;;;;;;2.10;0.70;;;7.90;99.90;;;;;;5022032;28;20655;-83
2020/12/28 02:00:49;;;;;;;2.30;0.70;;;7.90;99.90;;;;;;5020812;28;20200;-80
2020/12/28 02:03:16;;;;;;;2.50;0.82;;;7.90;99.90;;;;;;5019173;28;20215;-82
2020/12/28 02:05:44;;;;;;;2.60;1.00;;;7.80;99.90;;;;;;5034105;28;20258;-82
2020/12/28 02:08:11;;;;;;;2.35;1.00;;;7.90;99.90;;;;;;5039039;28;20203;-81
2020/12/28 02:10:38;;;;;;;2.85;0.98;;;7.90;99.90;;;;;;5024371;28;20693;-82
2020/12/28 02:13:04;;;;;;;2.83;1.10;;;7.80;99.90;;;;;;5019706;28;20218;-82
2020/12/28 02:15:31;;;;;;;2.47;0.82;;;7.90;99.90;;;;;;5023124;28;20243;-82
2020/12/28 02:17:58;;;;;;;2.40;0.90;;;7.80;99.90;;;;;;5023647;28;20226;-82
2020/12/28 02:20:25;;;;;;;2.72;1.10;;;7.80;99.90;;;;;;5036821;28;20207;-82
2020/12/28 02:22:52;;;;;;;2.65;0.90;;;7.90;99.90;;;;;;5024368;28;20216;-82
2020/12/28 02:25:19;;;;;;;2.72;0.70;;;8.00;99.90;;;;;;5025134;28;20254;-82
2020/12/28 02:27:45;;;;;;;3.22;1.02;;;7.90;99.90;;;;;;5036192;28;20232;-82
2020/12/28 02:30:12;;;;;;;2.40;1.00;;;7.60;99.90;;;;;;5023858;28;20246;-83
2020/12/28 02:32:39;;;;;;;3.10;1.15;;;7.60;99.90;;;;;;5032619;28;20199;-83
2020/12/28 02:35:06;;;;;;;3.60;1.40;;;7.60;99.90;;;;;;5035711;28;20219;-82
2020/12/28 02:37:32;;;;;;;2.80;0.98;;;7.70;99.90;;;;;;5027900;28;20211;-82
2020/12/28 02:40:00;;;;;;;3.22;0.90;;;7.50;99.90;;;;;;5031282;28;20291;-83
2020/12/28 02:42:26;;;;;;;2.85;1.35;;;7.70;99.90;;;;;;5040758;28;20204;-81
2020/12/28 02:44:53;;;;;;;2.85;0.98;;;7.90;99.90;;;;;;5028040;28;20235;-82
2020/12/28 02:47:19;;;;;;;3.50;0.88;;;7.80;99.90;;;;;;5044645;28;20231;-81
2020/12/28 02:49:46;;;;;;;3.78;0.98;;;7.80;99.90;;;;;;5036869;28;20204;-82
2020/12/28 02:52:12;;;;;;;2.42;0.95;;;7.80;99.90;;;;;;5018755;28;20238;-82
2020/12/28 02:54:39;;;;;;;2.83;1.00;;;8.00;99.90;;;;;;5017595;28;20798;-82
2020/12/28 02:57:06;;;;;;;2.30;0.80;;;7.80;99.90;;;;;;5029289;28;20203;-82
2020/12/28 02:59:33;;;;;;;2.28;0.82;;;7.70;99.90;;;;;;5028619;28;20213;-83
2020/12/28 03:01:59;;;;;;;2.65;1.00;;;7.70;99.90;;;;;;5039325;28;20237;-82
2020/12/28 03:04:26;;;;;;;2.30;0.85;;;7.50;99.90;;;;;;5029975;28;20224;-83
2020/12/28 03:06:53;;;;;;;2.70;1.08;;;7.40;99.90;;;;;;5035108;28;20297;-82
2020/12/28 03:09:19;;;;;;;2.20;0.80;;;7.30;99.90;;;;;;5037193;28;20207;-82
2020/12/28 03:11:46;;;;;;;2.78;0.95;;;7.40;99.90;;;;;;5025284;28;20231;-82
2020/12/28 03:14:13;;;;;;;2.55;0.88;;;7.10;99.90;;;;;;5022797;28;20311;-82
2020/12/28 03:16:40;;;;;;;2.80;0.88;;;7.10;99.90;;;;;;5019875;28;20206;-83
2020/12/28 03:19:06;;;;;;;2.35;0.68;;;7.10;99.90;;;;;;5034219;28;20284;-83
2020/12/28 03:21:33;;;;;;;2.45;0.93;;;7.00;99.90;;;;;;5038363;28;20757;-82
2020/12/28 03:23:59;;;;;;;2.40;1.10;;;7.00;99.90;;;;;;5037417;28;20621;-82
2020/12/28 03:26:26;;;;;;;2.60;0.80;;;7.10;99.90;;;;;;5019840;28;20279;-82
2020/12/28 03:28:52;;;;;;;2.10;0.70;;;7.30;99.90;;;;;;5029552;28;20214;-81
2020/12/28 03:31:20;;;;;;;2.55;0.80;;;7.00;99.90;;;;;;5032422;28;20196;-82
2020/12/28 03:33:46;;;;;;;3.15;0.75;;;6.90;99.90;;;;;;5016429;28;20200;-82
2020/12/28 03:36:13;;;;;;;2.22;0.70;;;7.00;99.90;;;;;;5017872;28;20279;-82
2020/12/28 03:38:39;;;;;;;2.53;0.75;;;7.10;99.90;;;;;;5035779;28;20214;-83
2020/12/28 03:41:06;;;;;;;2.40;0.75;;;7.00;99.90;;;;;;5035372;28;20206;-83
2020/12/28 03:43:32;;;;;;;2.20;0.75;;;7.10;99.90;;;;;;5019806;28;20682;-83
2020/12/28 03:45:59;;;;;;;2.10;0.60;;;7.00;99.90;;;;;;5035248;28;20262;-83
2020/12/28 03:48:26;;;;;;;2.35;0.70;;;7.00;99.90;;;;;;5032651;28;20208;-83
2020/12/28 03:50:53;;;;;;;2.08;0.65;;;7.00;99.90;;;;;;5034925;28;20203;-82
2020/12/28 03:53:19;;;;;;;2.70;0.80;;;7.00;99.90;;;;;;5043659;28;20213;-82
2020/12/28 03:55:46;;;;;;;2.35;0.93;;;7.10;99.90;;;;;;5031644;28;20223;-82
2020/12/28 03:58:13;;;;;;;2.78;1.35;;;7.10;99.90;;;;;;5024638;28;20204;-82
2020/12/28 04:00:39;;;;;;;2.47;1.27;;;7.20;99.90;;;;;;5034399;28;20226;-83
2020/12/28 04:03:06;;;;;;;2.42;1.10;;;7.00;99.90;;;;;;5031394;28;20215;-82
2020/12/28 04:05:33;;;;;;;3.60;1.50;;;6.90;99.90;;;;;;5032674;28;20287;-82
2020/12/28 04:08:00;;;;;;;4.28;1.85;;;7.00;99.90;;;;;;5044603;28;20206;-82
2020/12/28 04:10:28;;;;;;;2.90;1.30;;;6.90;99.90;;;;;;5025102;28;20604;-82
2020/12/28 04:12:54;;;;;;;3.30;1.08;;;7.00;99.90;;;;;;5024887;28;20206;-82
2020/12/28 04:15:21;;;;;;;5.25;1.42;;;6.90;99.90;;;;;;5029457;28;20240;-82
2020/12/28 04:17:47;;;;;;;3.78;1.58;;;6.90;99.90;;;;;;5029613;28;20269;-82
2020/12/28 04:20:14;;;;;;;3.50;1.50;;;6.90;99.90;;;;;;5046074;28;20211;-82
2020/12/28 04:22:41;;;;;;;5.25;1.75;;;7.00;99.90;;;;;;5042959;28;20208;-82
2020/12/28 04:25:13;;;;;;;5.15;1.58;;;6.90;99.90;;;;;;5053988;28;20591;-79
2020/12/28 04:27:39;;;;;;;4.00;1.60;;;6.70;99.90;;;;;;5051050;28;20234;-81
2020/12/28 04:30:06;;;;;;;5.30;2.17;;;6.80;99.90;;;;;;5048563;28;20567;-80
2020/12/28 04:32:32;;;;;;;4.95;1.60;;;6.80;99.90;;;;;;5032749;28;20203;-82
2020/12/28 04:34:59;;;;;;;3.83;1.73;;;7.00;99.90;;;;;;5044511;28;20227;-82
2020/12/28 04:37:25;;;;;;;6.07;1.77;;;7.00;99.90;;;;;;5030915;28;20429;-82
2020/12/28 04:39:53;;;;;;;4.95;2.03;;;6.70;99.90;;;;;;5023976;28;20219;-82
2020/12/28 04:42:24;;;;;;;5.88;1.83;;;6.80;99.90;;;;;;5026899;28;20207;-82
2020/12/28 04:44:50;;;;;;;3.67;1.40;;;6.70;99.90;;;;;;5023756;28;20262;-82
2020/12/28 04:47:17;;;;;;;3.90;1.63;;;6.80;99.90;;;;;;5025777;28;20224;-82
2020/12/28 04:49:46;;;;;;;3.75;1.50;;;6.80;99.90;;;;;;5026420;28;20775;-82
2020/12/28 04:52:13;;;;;;;4.13;1.80;;;6.70;99.90;;;;;;5044806;28;20211;-82
2020/12/28 04:54:40;;;;;;;3.00;1.40;;;6.70;99.90;;;;;;5041680;28;20618;-83
2020/12/28 04:57:07;;;;;;;3.08;1.42;;;6.70;99.90;;;;;;5032572;28;20188;-81
2020/12/28 04:59:34;;;;;;;3.58;1.40;;;6.60;99.90;;;;;;5034052;28;20199;-82
2020/12/28 05:02:01;;;;;;;3.28;1.23;;;6.60;99.90;;;;;;5027479;28;20200;-82
2020/12/28 05:04:27;;;;;;;2.78;1.25;;;6.70;99.90;;;;;;5037451;28;20223;-81
2020/12/28 05:07:03;;;;;;;3.53;1.58;;;6.70;99.90;;;;;;5054134;28;20230;-82
2020/12/28 05:09:30;;;;;;;3.60;1.05;;;6.70;99.90;;;;;;5044338;28;20250;-82
2020/12/28 05:11:59;;;;;;;2.50;1.08;;;6.80;99.90;;;;;;5032900;28;20230;-82
2020/12/28 05:14:27;;;;;;;3.42;2.03;;;6.90;99.90;;;;;;5023724;28;20228;-82
2020/12/28 05:16:58;;;;;;;4.25;1.30;;;6.80;99.90;;;;;;5027875;28;20199;-82
2020/12/28 05:19:25;;;;;;;7.03;2.28;;;6.70;99.90;;;;;;5042992;28;20245;-82
2020/12/28 05:21:52;;;;;;;3.95;1.92;;;6.90;99.90;;;;;;5040493;28;20624;-82
2020/12/28 05:24:19;;;;;;;4.00;1.45;;;6.70;99.90;;;;;;5003126;28;20225;-82
2020/12/28 05:26:46;;;;;;;3.83;1.20;;;6.70;99.90;;;;;;5027037;28;20258;-82
2020/12/28 05:29:14;;;;;;;5.70;1.67;;;6.80;99.90;;;;;;5022917;28;20275;-82
2020/12/28 05:31:44;;;;;;;2.85;1.25;;;6.70;99.90;;;;;;5036710;28;20207;-82
2020/12/28 05:34:14;;;;;;;2.80;1.10;;;6.70;99.90;;;;;;5043030;28;20299;-82
2020/12/28 05:36:42;;;;;;;2.20;0.70;;;6.90;99.90;;;;;;5031078;28;20218;-82
2020/12/28 05:39:10;;;;;;;2.70;0.90;;;6.70;99.90;;;;;;5023381;28;20212;-81
2020/12/28 05:41:36;;;;;;;1.85;0.50;;;6.70;99.90;;;;;;5028009;28;20588;-81
2020/12/28 05:44:10;;;;;;;2.50;0.80;;;6.60;99.90;;;;;;5030873;28;20269;-82
2020/12/28 05:46:37;;;;;;;2.20;0.73;;;6.70;99.90;;;;;;5042439;28;20238;-81
2020/12/28 05:49:14;;;;;;;2.45;0.82;;;6.80;99.90;;;;;;5040956;28;20582;-82
2020/12/28 05:51:41;;;;;;;3.13;1.38;;;6.80;99.90;;;;;;5001825;28;20196;-80
2020/12/28 05:54:11;;;;;;;2.72;1.40;;;6.70;99.90;;;;;;5002710;28;20271;-82
2020/12/28 05:56:43;;;;;;;2.90;1.00;;;6.70;99.90;;;;;;5029940;28;20199;-81
2020/12/28 05:59:12;;;;;;;3.70;0.80;;;6.80;99.90;;;;;;5043304;28;20326;-80
2020/12/28 06:01:43;;;;;;;2.15;0.68;;;6.70;99.90;;;;;;5046938;28;20207;-81
2020/12/28 06:04:15;;;;;;;2.17;0.60;;;6.70;99.90;;;;;;5034438;28;20216;-80
2020/12/28 06:06:42;;;;;;;2.00;0.57;;;6.90;99.90;;;;;;5028550;28;20219;-83
2020/12/28 06:09:09;;;;;;;2.33;0.70;;;6.80;99.90;;;;;;5025709;28;20199;-82
2020/12/28 06:11:35;;;;;;;2.45;0.70;;;6.70;99.90;;;;;;5047855;28;20206;-81
2020/12/28 06:14:19;;;;;;;2.22;0.70;;;6.80;99.90;;;;;;5034074;28;20220;-82
2020/12/28 06:16:47;;;;;;;2.30;0.77;;;6.90;99.90;;;;;;5037382;28;20198;-82
2020/12/28 06:19:25;;;;;;;2.58;1.00;;;6.80;99.90;;;;;;5047806;28;20226;-82
2020/12/28 06:21:52;;;;;;;2.20;0.68;;;6.80;99.90;;;;;;5031630;28;20207;-82
2020/12/28 06:24:25;;;;;;;2.70;1.08;;;6.70;99.90;;;;;;5022801;28;20232;-82
2020/12/28 06:27:00;;;;;;;3.03;1.10;;;6.80;99.90;;;;;;5025507;28;20220;-82
2020/12/28 06:29:26;;;;;;;5.15;1.00;;;6.80;99.90;;;;;;5030034;28;20207;-84
2020/12/28 06:31:53;;;;;;;2.92;0.90;;;6.90;99.90;;;;;;5025710;28;20258;-83
2020/12/28 06:34:20;;;;;;;2.53;0.70;;;7.00;99.90;;;;;;5037662;28;20216;-83
2020/12/28 06:36:58;;;;;;;3.13;0.77;;;6.80;99.90;;;;;;5040931;28;20206;-83
2020/12/28 06:39:24;;;;;;;2.25;0.68;;;6.90;99.90;;;;;;5031574;28;20258;-82
2020/12/28 06:41:51;;;;;;;2.50;0.77;;;6.60;99.90;;;;;;5043600;28;20210;-82
2020/12/28 06:44:26;;;;;;;2.10;0.73;;;6.80;99.90;;;;;;5026643;28;20629;-82
2020/12/28 06:46:53;;;;;;;3.30;0.85;;;6.70;99.90;;;;;;5033799;28;20247;-81
2020/12/28 06:49:25;;;;;;;2.75;1.20;;;6.90;99.90;;;;;;5023131;28;20204;-81
2020/12/28 06:51:52;;;;;;;3.33;1.35;;;6.70;99.90;;;;;;5036972;28;20211;-80
2020/12/28 06:54:22;;;;;;;2.38;0.88;;;6.80;99.90;;;;;;5029966;28;20224;-81
2020/12/28 06:56:49;;;;;;;2.80;0.80;;;6.70;99.90;;;;;;5029556;28;20222;-80
2020/12/28 06:59:16;;;;;;;3.75;0.82;;;6.90;99.90;;;;;;5022766;28;20203;-81
2020/12/28 07:01:46;;;;;;;2.53;0.70;;;6.80;99.90;;;;;;5024256;28;20212;-81
2020/12/28 07:04:14;;;;;;;2.70;0.90;;;6.90;99.90;;;;;;5036212;28;20234;-82
2020/12/28 07:06:40;;;;;;;2.20;0.93;;;6.80;99.90;;;;;;5039174;28;20231;-82
2020/12/28 07:09:09;;;;;;;3.15;1.20;;;6.80;99.90;;;;;;5035182;28;20203;-81
2020/12/28 07:11:35;;;;;;;2.40;0.95;;;6.90;99.90;;;;;;5035011;28;20230;-83
2020/12/28 07:14:04;;;;;;;2.30;0.82;;;6.60;99.90;;;;;;5041517;28;20230;-80
2020/12/28 07:16:31;;;;;;;6.78;1.00;;;6.80;99.90;;;;;;5032088;28;20259;-81
2020/12/28 07:19:02;;;;;;;2.75;1.08;;;6.80;99.90;;;;;;5032594;28;20296;-81
2020/12/28 07:21:29;;;;;;;2.83;1.10;;;6.70;99.90;;;;;;5028644;28;20196;-81
2020/12/28 07:23:55;;;;;;;3.75;1.08;;;6.80;99.90;;;;;;5021276;28;20705;-81
2020/12/28 07:26:24;;;;;;;3.72;0.90;;;6.80;99.90;;;;;;5028944;28;20610;-84
2020/12/28 07:28:50;;;;;;;2.90;1.20;;;6.60;99.90;;;;;;5040777;28;20226;-80
2020/12/28 07:31:22;;;;;;;3.50;1.23;;;6.70;99.90;;;;;;5040655;28;20211;-83
2020/12/28 07:33:50;;;;;;;3.28;0.90;;;6.70;99.90;;;;;;5040835;28;20204;-82
2020/12/28 07:36:20;;;;;;;4.00;1.27;;;6.80;99.90;;;;;;5027411;28;20207;-82
2020/12/28 07:38:48;;;;;;;2.90;0.82;;;6.70;99.90;;;;;;5020410;28;20266;-83
2020/12/28 07:41:15;;;;;;;2.85;1.10;;;6.70;99.90;;;;;;5034713;28;20207;-82
2020/12/28 07:43:53;;;;;;;3.10;1.00;;;6.80;99.90;;;;;;5040790;28;20728;-82
2020/12/28 07:46:29;;;;;;;3.65;1.42;;;6.80;99.90;;;;;;5047280;22;20225;-86
2020/12/28 07:49:01;;;;;;;3.00;1.17;;;6.50;99.90;;;;;;5062251;28;20209;-85
2020/12/28 07:51:28;;;;;;;5.63;1.20;;;6.60;99.90;;;;;;5066977;28;20195;-85
2020/12/28 07:54:03;;;;;;;3.10;1.10;;;6.70;99.90;;;;;;5063374;28;20207;-84
2020/12/28 07:56:38;;;;;;;3.95;1.27;;;6.50;99.90;;;;;;5051769;28;20289;-84
2020/12/28 07:59:15;;;;;;;3.78;1.20;;;6.70;99.90;;;;;;5047521;28;20202;-85
2020/12/28 08:01:46;;;;;;;2.58;1.17;;;6.80;99.90;;;;;;5036482;28;20225;-86
2020/12/28 08:04:19;;;;;;;2.90;1.10;;;6.70;99.90;;;;;;5033865;28;20208;-85
2020/12/28 08:06:46;;;;;;;3.00;1.30;;;6.60;99.90;;;;;;5033746;28;20238;-85
2020/12/28 08:09:13;;;;;;;2.85;1.35;;;6.50;99.90;;;;;;5035220;28;20237;-86
2020/12/28 08:11:41;;;;;;;3.97;1.40;;;6.70;99.90;;;;;;5036433;28;20208;-85
2020/12/28 08:14:12;;;;;;;4.45;1.52;;;6.60;99.90;;;;;;5036015;28;20213;-85
2020/12/28 08:16:38;;;;;;;4.10;1.20;;;6.50;99.90;;;;;;5035888;28;20717;-85
2020/12/28 08:19:05;;;;;;;6.55;2.95;;;6.60;99.90;;;;;;5035777;28;20290;-86
2020/12/28 08:21:39;;;;;;;5.05;1.42;;;6.50;99.90;;;;;;5036851;28;20211;-85
2020/12/28 08:24:06;;;;;;;4.38;1.20;;;6.60;99.90;;;;;;5041189;28;20203;-85
2020/12/28 08:26:32;;;;;;;3.33;1.33;;;6.50;99.90;;;;;;5039797;28;20692;-85
2020/12/28 08:29:00;;;;;;;5.40;1.88;;;6.80;99.90;;;;;;5041744;28;20208;-85
2020/12/28 08:31:28;;;;;;;3.60;1.48;;;6.80;99.90;;;;;;5043685;28;20229;-85
2020/12/28 08:34:01;;;;;;;5.75;1.80;;;6.50;99.90;;;;;;5037021;28;20215;-85
2020/12/28 08:36:29;;;;;;;3.80;1.58;;;6.60;99.90;;;;;;5037800;28;20227;-85
2020/12/28 08:38:56;;;;;;;3.85;1.60;;;6.60;99.90;;;;;;5025095;28;20200;-85
2020/12/28 08:41:22;;;;;;;3.83;1.65;;;6.90;99.90;;;;;;5044474;28;20661;-85
2020/12/28 08:43:49;;;;;;;9.73;2.05;;;6.80;99.90;;;;;;5052338;28;20261;-85
2020/12/28 08:46:22;;;;;;;3.22;1.25;;;6.70;99.90;;;;;;5050636;28;20219;-85
2020/12/28 08:48:50;;;;;;;4.45;1.90;;;6.70;99.90;;;;;;5052201;28;20206;-85
2020/12/28 08:51:20;;;;;;;3.10;1.70;;;6.70;99.90;;;;;;5051382;28;20200;-85
2020/12/28 08:53:47;;;;;;;3.65;1.35;;;6.60;99.90;;;;;;5051407;28;20207;-84
2020/12/28 08:56:14;;;;;;;3.38;1.42;;;6.80;99.90;;;;;;5052605;28;20208;-85
2020/12/28 08:58:41;;;;;;;5.18;1.60;;;6.90;99.90;;;;;;5051498;28;20227;-84
2020/12/28 09:01:07;;;;;;;8.80;4.72;;;6.80;99.90;;;;;;5052032;28;20226;-84
2020/12/28 09:03:36;;;;;;;6.15;2.00;;;6.70;99.90;;;;;;5054051;28;20214;-84
2020/12/28 09:06:04;;;;;;;3.90;1.17;;;6.90;99.90;;;;;;5052738;28;20207;-84
2020/12/28 09:08:31;;;;;;;3.13;1.35;;;6.70;99.90;;;;;;5051378;28;20202;-85
2020/12/28 09:10:58;;;;;;;2.90;1.13;;;6.50;99.90;;;;;;5047072;28;20203;-85
2020/12/28 09:13:24;;;;;;;6.32;1.10;;;6.80;99.90;;;;;;5042806;28;20210;-84
2020/12/28 09:15:51;;;;;;;2.72;0.90;;;6.70;99.90;;;;;;5035628;28;20401;-84
2020/12/28 09:18:18;;;;;;;3.40;1.05;;;6.80;99.90;;;;;;5041153;28;20238;-84
2020/12/28 09:20:45;;;;;;;4.00;1.40;;;6.60;99.90;;;;;;5042327;28;20226;-84
2020/12/28 09:23:13;;;;;;;3.95;0.90;;;6.90;99.90;;;;;;5044506;28;20200;-84
2020/12/28 09:25:39;;;;;;;8.90;1.95;;;6.80;99.90;;;;;;5045330;28;20211;-85
2020/12/28 09:28:06;;;;;;;3.03;1.15;;;6.80;99.90;;;;;;5043421;28;20227;-85
2020/12/28 09:30:32;;;;;;;4.82;1.00;;;6.60;99.90;;;;;;5042047;28;20203;-85
2020/12/28 09:32:59;;;;;;;3.17;1.13;;;6.70;99.90;;;;;;5043074;28;20207;-86
2020/12/28 09:35:25;;;;;;;3.55;1.00;;;6.70;99.90;;;;;;5039492;28;20214;-86
2020/12/28 09:37:52;;;;;;;3.35;1.30;;;6.80;99.90;;;;;;5041040;28;20223;-85
2020/12/28 09:40:20;;;;;;;5.05;1.05;;;6.90;99.90;;;;;;5048652;28;20248;-86
2020/12/28 09:42:46;;;;;;;3.63;1.65;;;6.70;99.90;;;;;;5040956;28;20245;-86
2020/12/28 09:47:57;;;;;;;9.85;1.63;;;6.90;99.90;;;;;;5038588;28;20234;-87
2020/12/28 09:50:24;;;;;;;10.18;1.60;;;6.70;99.90;;;;;;5039953;28;20207;-85
2020/12/28 09:52:50;;;;;;;5.00;1.25;;;7.00;99.90;;;;;;5044612;28;20204;-84
2020/12/28 09:55:17;;;;;;;5.60;1.00;;;7.00;99.90;;;;;;5042636;28;20217;-85
2020/12/28 09:57:44;;;;;;;5.88;1.65;;;7.10;99.90;;;;;;5044258;28;20224;-85
2020/12/28 10:00:11;;;;;;;6.70;2.22;;;6.90;99.90;;;;;;5044946;28;20334;-84
2020/12/28 10:02:40;;;;;;;6.95;1.85;;;7.00;99.90;;;;;;5043153;28;20207;-85
2020/12/28 10:05:07;;;;;;;4.40;1.70;;;7.30;99.90;;;;;;5035707;28;20203;-85
2020/12/28 10:07:34;;;;;;;3.88;2.10;;;7.00;99.90;;;;;;5027838;28;20250;-85
2020/12/28 10:10:00;;;;;;;3.08;1.90;;;7.00;99.90;;;;;;5036043;28;20215;-86
2020/12/28 10:12:27;;;;;;;6.35;2.45;;;7.20;99.90;;;;;;5039670;28;20654;-86
2020/12/28 10:14:55;;;;;;;3.13;1.55;;;7.10;99.90;;;;;;5043086;28;20211;-85
2020/12/28 10:17:21;;;;;;;3.17;1.80;;;6.90;99.90;;;;;;5038514;28;20773;-85
2020/12/28 10:19:48;;;;;;;4.28;2.35;;;7.10;99.90;;;;;;5034035;28;20210;-86
2020/12/28 10:22:14;;;;;;;4.95;2.30;;;7.00;99.90;;;;;;5038710;28;20253;-84
2020/12/28 10:24:41;;;;;;;3.47;1.90;;;7.00;99.90;;;;;;5047801;28;20211;-85
2020/12/28 10:27:08;;;;;;;3.47;1.90;;;7.10;99.90;;;;;;5047216;28;20233;-85
2020/12/28 10:29:34;;;;;;;4.70;2.17;;;7.20;99.90;;;;;;5053503;28;20203;-85
2020/12/28 10:32:02;;;;;;;4.10;2.40;;;7.20;99.90;;;;;;5058779;28;20210;-84
2020/12/28 10:34:29;;;;;;;4.53;2.25;;;7.20;99.90;;;;;;5046619;28;20282;-84
2020/12/28 10:36:55;;;;;;;4.57;2.45;;;7.00;99.90;;;;;;5039925;28;20233;-85
2020/12/28 10:39:22;;;;;;;6.97;3.17;;;7.10;99.90;;;;;;5041150;28;20211;-84
2020/12/28 10:41:48;;;;;;;5.47;2.88;;;7.30;99.90;;;;;;5040821;28;20210;-85
2020/12/28 10:44:15;;;;;;;7.25;3.30;;;7.30;99.90;;;;;;5043686;28;20207;-86
2020/12/28 10:46:42;;;;;;;5.65;3.17;;;7.40;99.90;;;;;;5041130;28;20578;-75
2020/12/28 10:49:09;;;;;;;5.30;2.78;;;7.30;99.90;;;;;;5020101;28;20707;-75
2020/12/28 10:51:36;;;;;;;7.47;3.10;;;7.30;99.90;;;;;;5030543;28;20211;-76
2020/12/28 10:54:02;;;;;;;7.50;3.10;;;7.40;99.90;;;;;;5031088;28;20207;-77
2020/12/28 10:56:30;;;;;;;5.43;3.78;;;7.30;99.90;;;;;;5029938;28;20219;-77
2020/12/28 10:58:59;;;;;;;7.40;3.13;;;7.30;99.90;;;;;;5040384;28;20203;-85
2020/12/28 11:01:39;;;;;;;6.57;3.20;;;7.50;99.90;;;;;;5039354;28;20214;-85
2020/12/28 11:04:05;;;;;;;6.43;3.40;;;7.40;99.90;;;;;;5037485;28;20242;-86
2020/12/28 11:06:33;;;;;;;5.47;2.80;;;7.40;99.90;;;;;;5048472;28;20221;-84
2020/12/28 11:09:02;;;;;;;5.20;3.13;;;7.20;99.90;;;;;;5048750;28;20207;-85
2020/12/28 11:11:29;;;;;;;5.68;3.28;;;7.30;99.90;;;;;;5046487;28;20207;-82
2020/12/28 11:13:56;;;;;;;5.53;3.33;;;7.50;99.90;;;;;;5050858;28;20201;-85
2020/12/28 11:16:26;;;;;;;5.18;3.28;;;7.50;99.90;;;;;;5043595;28;20211;-82
2020/12/28 11:18:53;;;;;;;5.47;2.88;;;7.40;99.90;;;;;;5019522;28;20218;-81
2020/12/28 11:21:19;;;;;;;4.10;2.97;;;7.40;99.90;;;;;;5025880;28;20199;-85
2020/12/28 11:23:59;;;;;;;4.55;2.92;;;7.40;99.90;;;;;;5042695;28;20203;-84
2020/12/28 11:26:26;;;;;;;5.10;2.20;;;7.60;99.90;;;;;;5052366;28;20222;-82
2020/12/28 11:28:52;;;;;;;6.05;3.60;;;7.50;99.90;;;;;;5045265;28;20207;-83
2020/12/28 11:31:19;;;;;;;8.95;3.08;;;7.40;99.90;;;;;;5042920;28;20195;-85
2020/12/28 11:33:46;;;;;;;4.30;2.80;;;7.50;99.90;;;;;;5053958;28;20210;-81
2020/12/28 11:36:13;;;;;;;4.43;2.45;;;7.50;99.90;;;;;;5053744;28;20206;-80
2020/12/28 11:38:42;;;;;;;5.55;3.08;;;7.70;99.90;;;;;;5044540;28;20207;-79
2020/12/28 11:41:12;;;;;;;5.40;3.95;;;7.60;99.90;;;;;;5031567;28;20223;-77
2020/12/28 11:43:38;;;;;;;6.10;3.55;;;7.60;99.90;;;;;;5034009;28;20254;-82
2020/12/28 11:46:06;;;;;;;6.00;3.45;;;7.50;99.90;;;;;;5038037;28;20242;-80
2020/12/28 11:48:33;;;;;;;10.07;3.30;;;7.90;99.90;;;;;;5032260;28;20231;-85
2020/12/28 11:51:01;;;;;;;5.32;2.83;;;7.70;99.90;;;;;;5035530;28;20210;-82
2020/12/28 11:53:28;;;;;;;4.65;3.25;;;7.70;99.90;;;;;;5035493;28;20239;-83
2020/12/28 11:56:04;;;;;;;4.88;2.65;;;7.70;99.90;;;;;;5037894;28;20265;-83
2020/12/28 11:58:33;;;;;;;5.72;3.17;;;7.60;99.90;;;;;;5035117;28;20214;-86
2020/12/28 12:01:00;;;;;;;5.30;3.55;;;7.50;99.90;;;;;;5034872;28;20619;-86
2020/12/28 12:03:28;;;;;;;5.45;3.35;;;7.50;99.90;;;;;;5034039;28;20583;-84
2020/12/28 12:05:55;;;;;;;4.57;2.72;;;7.60;99.90;;;;;;5035443;28;20219;-84
2020/12/28 12:08:22;;;;;;;6.88;3.78;;;7.60;99.90;;;;;;5036871;28;20231;-85
2020/12/28 12:10:49;;;;;;;6.93;3.05;;;7.80;99.90;;;;;;5036015;28;20254;-84
2020/12/28 12:13:16;;;;;;;9.55;4.93;;;7.40;99.90;;;;;;5036939;28;20203;-84
2020/12/28 12:15:44;;;;;;;10.07;5.22;;;7.50;99.90;;;;;;5038872;28;20195;-84
2020/12/28 12:18:11;;;;;;;5.20;2.90;;;7.50;99.90;;;;;;5039428;28;20952;-83
2020/12/28 12:20:37;;;;;;;5.70;2.65;;;7.80;99.90;;;;;;5055573;28;20199;-82
2020/12/28 12:23:04;;;;;;;6.85;3.10;;;7.70;99.90;;;;;;5049912;28;20211;-85
2020/12/28 12:25:30;;;;;;;7.45;3.30;;;7.70;99.90;;;;;;5042155;28;20222;-81
2020/12/28 12:27:57;;;;;;;6.15;3.40;;;7.70;99.90;;;;;;5043071;28;20231;-81
2020/12/28 12:30:23;;;;;;;5.65;2.70;;;7.80;99.90;;;;;;5043411;28;20207;-82
2020/12/28 12:32:51;;;;;;;5.22;2.70;;;7.90;99.90;;;;;;5041886;28;20261;-83
2020/12/28 12:35:18;;;;;;;7.60;3.13;;;8.00;99.90;;;;;;5042780;28;20227;-82
2020/12/28 12:37:45;;;;;;;7.50;4.15;;;8.00;99.90;;;;;;5050044;28;20231;-83
2020/12/28 12:40:12;;;;;;;4.07;2.63;;;7.90;99.90;;;;;;5044382;28;20242;-86
2020/12/28 12:42:38;;;;;;;4.40;2.72;;;7.90;99.90;;;;;;5040964;28;20257;-86
2020/12/28 12:45:05;;;;;;;4.40;2.88;;;7.90;99.90;;;;;;5040253;28;20204;-85
2020/12/28 12:47:32;;;;;;;8.93;3.20;;;8.00;99.90;;;;;;5041121;28;20249;-83
2020/12/28 12:49:59;;;;;;;7.90;2.45;;;7.90;99.90;;;;;;5045219;28;20211;-84
2020/12/28 12:52:27;;;;;;;4.15;2.20;;;7.80;99.90;;;;;;5043778;28;20203;-82
2020/12/28 12:54:54;;;;;;;5.90;2.47;;;7.80;99.90;;;;;;5037932;28;20207;-77
2020/12/28 12:57:20;;;;;;;4.97;2.30;;;7.70;99.90;;;;;;5037902;28;20223;-84
2020/12/28 13:00:04;;;;;;;3.78;1.52;;;7.60;99.90;;;;;;5047099;28;20214;-86
2020/12/28 13:02:31;;;;;;;5.35;2.38;;;7.60;99.90;;;;;;5043135;28;20294;-83
2020/12/28 13:05:01;;;;;;;4.75;2.50;;;7.60;99.90;;;;;;5040466;28;20252;-77